メインページ
METAR-TAF:

METAR-TAF

空港 :

ブリスベン空港

ブリスベン, オーストラリア

緯度: 27-23S, 経度: 153-06E, 海抜: 4m

現時点の気象観測

当レポートは28分前の19:30(UTC)に作成
東/南東の風 8kt
気温 20°C
湿度 94%
気圧 1016 hPa
視程10km以上
高度1900ftの千切れ雲あり
高度3500ftの千切れ雲あり

METAR: YBBN 151930Z 11008KT 9999 BKN019 BKN035 20/19 Q1016 TEMPO 1930/2230 3000 SHRA BKN010

時間: 05:58 (19:58 UTC)

予報

当レポートは2時間49分前の17:09(UTC)に作成
予報は15日の 18時(UTC)から 16日の 24時(UTC)まで有効
南東の風 12kt
視程10km以上
高度800ftの雲は散在している
高度1200ftの千切れ雲あり
弱いにわか雨
16日の 0000時(UTC)から
東/南東の風 14kt
視程10km以上
高度2000ftの雲は散在している
高度3500ftの雲は散在している
弱いにわか雨
16日の 1000時(UTC)から
の風 7kt
視程10km以上
高度1500ftの雲は散在している
高度2500ftの千切れ雲あり
15日の 18時(UTC)から 15日の 24時(UTC)まで一時的に
視程: 3000m
高度1000ftの千切れ雲あり
高度1200ftの千切れ雲あり
にわか雨, にわか雨
16日の 08時(UTC)から 16日の 22時(UTC)まで一時的に
視程10km以上
高度1200ftの千切れ雲あり

TAF: YBBN 151709Z 1518/1624 13012KT 9999 -SHRA SCT008 BKN012 FM160000 12014KT 9999 -SHRA SCT020 SCT035 FM161000 18007KT 9999 SCT015 BKN025 TEMPO 1518/1524 3000 SHRA BKN010 INTER 1600/1608 3000 SHRA BKN012 TEMPO 1608/1622 9999 NSW BKN012

4,000以上の空港の気象観測と天気予報(METAR報とTAF報)

利用可能な観測所は地図上に黄色い丸と赤い丸で示す。

丸の上にカーソルを重ねると観測所名を参照できる。

次にクリックすると気象観測と天気予報を参照できる。

マップの切り替え:黒色「×」印の緑ボタンをクリックして拡大、「-」印の緑ボタンをクリックして縮小、緑色の三角印をクリックして隣りの地図に切り替え


METAR-TAF: